Portada
METAR-TAF:

METAR-TAF

Aeropuertos :

Caracas, Venezuela

Aeropuerto Internacional de Maiquetía Simón Bolívar

latitud: 10-36N, longitud: 066-59W, altitud: 43 m

Observación

El informe se hizo hace 38 minutos, a las 18:00 UTC
Viento 6 kt del noreste
Temperatura 32°C
Humedad 56%
Presión 1012 hPa
Visibilidad 10 km o más
Nubes dispersas a una altura de 1600 ft

METAR: SVMI 161800Z 05006KT 9999 SCT016 32/22 Q1012

Hora: 14:38 (18:38 UTC)

Pronóstico

El informe se hizo hace 2 horas y 38 minutos, a las 16:00 UTC
Pronóstico válido del 16 a las 18 UTC al 17 a las 18 UTC
Viento 10 kt del oeste-suroeste
Visibilidad 10 km o más
Escasas nubes a una altura de 1600 ft
llovizna ligera
Evolucionando progresivamente
del 16 a las 18 UTC al 16 a las 22 UTC
Viento 10 kt del oeste-suroeste
Visibilidad 10 km o más
Escasas nubes a una altura de 1600 ft

TAF: SVMI 161600Z 1618/1718 24010KT 9999 -DZ FEW016 TX31/18Z TN22/08Z BECMG 1618/1622 25010KT 9999 FEW016

Observaciones y pronósticos meteorológicos de más de 4000 aeropuertos (mensajes METAR y TAF).

Los puntos amarillos y rojos representan las estaciones disponibles.

Ponga el ratón en el punto deseado para ver el nombre de la estación.

Haga clic para ver las observaciones y los pronósticos meteorológicos.

Para cambiar el mapa : haga clic en los botones verdes con una cruz de color negro para hacer un zoom, en el botón verde con un guión para alejar o en las flechas verdes para mapas adyacentes.


METAR-TAF: